createdAt,value
2022-08-28T00:00:37.829Z,23.47
2022-08-28T00:03:05.765Z,23.42
2022-08-28T00:05:33.133Z,23.40
2022-08-28T00:08:00.458Z,23.37
2022-08-28T00:10:27.871Z,23.37
2022-08-28T00:12:58.237Z,23.36
2022-08-28T00:15:34.059Z,23.33
2022-08-28T00:18:01.208Z,23.32
2022-08-28T00:20:28.757Z,23.29
2022-08-28T00:22:56.427Z,23.28
2022-08-28T00:25:26.215Z,23.24
2022-08-28T00:27:57.363Z,23.21
2022-08-28T00:30:32.142Z,23.19
2022-08-28T00:33:06.501Z,23.17
2022-08-28T00:35:33.577Z,23.22
2022-08-28T00:38:00.931Z,23.24
2022-08-28T00:40:32.892Z,23.23
2022-08-28T00:43:04.453Z,23.19
2022-08-28T00:45:38.714Z,23.14
2022-08-28T00:48:06.519Z,23.11
2022-08-28T00:50:56.758Z,23.08
2022-08-28T00:53:29.914Z,23.06
2022-08-28T00:56:00.050Z,23.02
2022-08-28T00:58:26.750Z,22.99
2022-08-28T01:00:53.384Z,22.98
2022-08-28T01:03:20.030Z,22.93
2022-08-28T01:05:51.919Z,22.89
2022-08-28T01:08:18.720Z,22.87
2022-08-28T01:10:49.806Z,22.84
2022-08-28T01:13:18.130Z,22.80
2022-08-28T01:15:45.501Z,22.79
2022-08-28T01:18:16.257Z,22.77
2022-08-28T01:20:49.317Z,22.75
2022-08-28T01:23:45.806Z,22.76
2022-08-28T01:26:13.329Z,22.76
2022-08-28T01:28:40.893Z,22.76
2022-08-28T01:31:11.280Z,22.76
2022-08-28T01:33:39.314Z,22.75
2022-08-28T01:36:10.452Z,22.74
2022-08-28T01:38:38.993Z,22.63
2022-08-28T01:41:06.161Z,22.59
2022-08-28T01:43:32.969Z,22.56
2022-08-28T01:46:02.602Z,22.57
2022-08-28T01:48:31.528Z,22.57
2022-08-28T01:50:58.720Z,22.53
2022-08-28T01:53:32.711Z,22.51
2022-08-28T01:56:02.310Z,22.49
2022-08-28T01:58:36.061Z,22.48
2022-08-28T02:01:08.577Z,22.50
2022-08-28T02:03:35.281Z,22.59
2022-08-28T02:06:02.023Z,22.61
2022-08-28T02:08:28.661Z,22.63
2022-08-28T02:10:55.292Z,22.56
2022-08-28T02:13:22.382Z,22.41
2022-08-28T02:15:52.501Z,22.33
2022-08-28T02:18:19.223Z,22.30
2022-08-28T02:20:46.679Z,22.21
2022-08-28T02:23:13.956Z,22.13
2022-08-28T02:25:40.969Z,22.04
2022-08-28T02:28:09.193Z,21.98
2022-08-28T02:30:37.032Z,21.93
2022-08-28T02:33:04.274Z,21.88
2022-08-28T02:35:31.356Z,21.81
2022-08-28T02:37:58.658Z,21.77
2022-08-28T02:40:27.648Z,21.69
2022-08-28T02:42:54.395Z,21.64
2022-08-28T02:45:21.219Z,21.58
2022-08-28T02:47:48.186Z,21.57
2022-08-28T02:50:18.923Z,21.56
2022-08-28T02:52:46.539Z,21.53
2022-08-28T02:55:17.476Z,21.49
2022-08-28T02:57:44.913Z,21.48
2022-08-28T03:00:16.912Z,21.47
2022-08-28T03:02:45.826Z,21.45
2022-08-28T03:05:15.000Z,21.42
2022-08-28T03:07:42.717Z,21.40
2022-08-28T03:10:10.782Z,21.37
2022-08-28T03:12:38.286Z,21.33
2022-08-28T03:15:06.375Z,21.29
2022-08-28T03:17:33.311Z,21.27
2022-08-28T03:20:00.355Z,21.27
2022-08-28T03:22:45.839Z,21.26
2022-08-28T03:25:12.671Z,21.22
2022-08-28T03:27:39.821Z,21.23
2022-08-28T03:30:08.108Z,21.23
2022-08-28T03:32:35.112Z,21.24
2022-08-28T03:35:02.096Z,21.24
2022-08-28T03:37:28.838Z,21.25
2022-08-28T03:39:55.629Z,21.26
2022-08-28T03:42:22.733Z,21.29
2022-08-28T03:44:49.536Z,21.28
2022-08-28T03:47:16.665Z,21.31
2022-08-28T03:49:45.388Z,21.31
2022-08-28T03:52:12.760Z,21.33
2022-08-28T03:54:39.568Z,21.34
2022-08-28T03:57:07.216Z,21.34
2022-08-28T03:59:35.505Z,21.34
2022-08-28T04:02:02.232Z,21.31
2022-08-28T04:04:28.867Z,21.33
2022-08-28T04:06:55.523Z,21.31
2022-08-28T04:09:22.168Z,21.33
2022-08-28T04:11:48.849Z,21.39
2022-08-28T04:14:15.481Z,21.41
2022-08-28T04:16:42.366Z,21.41
2022-08-28T04:19:09.275Z,21.42
2022-08-28T04:21:35.927Z,21.43
2022-08-28T04:24:05.771Z,21.43
2022-08-28T04:26:36.738Z,21.44
2022-08-28T04:29:05.061Z,21.46
2022-08-28T04:31:32.837Z,21.48
2022-08-28T04:34:05.547Z,21.48
2022-08-28T04:36:33.935Z,21.51
2022-08-28T04:39:01.609Z,21.53
2022-08-28T04:41:29.050Z,21.55
2022-08-28T04:43:57.194Z,21.57
2022-08-28T04:46:25.031Z,21.52
2022-08-28T04:48:52.338Z,21.56
2022-08-28T04:51:20.648Z,21.60
2022-08-28T04:53:47.437Z,21.58
2022-08-28T04:56:15.363Z,21.66
2022-08-28T04:58:43.822Z,21.72
2022-08-28T05:01:18.806Z,21.71
2022-08-28T05:03:47.949Z,21.72
2022-08-28T05:06:16.318Z,21.82
2022-08-28T05:08:43.585Z,21.94
2022-08-28T05:11:32.828Z,21.99
2022-08-28T05:14:04.405Z,21.96
2022-08-28T05:16:31.898Z,21.96
2022-08-28T05:19:02.658Z,21.91
2022-08-28T05:21:29.332Z,21.87
2022-08-28T05:23:57.704Z,21.94
2022-08-28T05:26:27.145Z,22.07
2022-08-28T05:28:57.748Z,22.15
2022-08-28T05:31:26.024Z,22.08
2022-08-28T05:33:54.000Z,22.06
2022-08-28T05:36:23.394Z,22.03
2022-08-28T05:38:56.503Z,22.08
2022-08-28T05:41:25.903Z,22.14
2022-08-28T05:43:54.125Z,22.15
2022-08-28T05:46:22.456Z,22.32
2022-08-28T05:48:49.469Z,22.30
2022-08-28T05:51:20.253Z,22.22
2022-08-28T05:53:50.300Z,22.37
2022-08-28T05:56:22.005Z,22.57
2022-08-28T05:58:48.691Z,22.52
2022-08-28T06:01:15.406Z,22.53
2022-08-28T06:03:43.265Z,22.46
2022-08-28T06:06:10.558Z,22.52
2022-08-28T06:08:37.540Z,22.56
2022-08-28T06:11:05.290Z,22.67
2022-08-28T06:13:34.070Z,22.65
2022-08-28T06:16:01.093Z,22.77
2022-08-28T06:18:27.926Z,22.92
2022-08-28T06:20:55.427Z,23.05
2022-08-28T06:23:23.976Z,23.27
2022-08-28T06:25:51.479Z,23.33
2022-08-28T06:28:19.894Z,23.55
2022-08-28T06:31:02.929Z,23.55
2022-08-28T06:33:32.973Z,23.74
2022-08-28T06:35:59.507Z,23.76
2022-08-28T06:38:26.746Z,23.88
2022-08-28T06:40:55.191Z,23.86
2022-08-28T06:43:23.083Z,23.85
2022-08-28T06:45:51.673Z,23.97
2022-08-28T06:48:19.818Z,24.11
2022-08-28T06:50:47.688Z,24.39
2022-08-28T06:53:15.073Z,24.38
2022-08-28T06:55:42.444Z,24.39
2022-08-28T06:58:09.451Z,24.68
2022-08-28T07:00:36.728Z,24.80
2022-08-28T07:03:05.976Z,24.44
2022-08-28T07:05:34.034Z,24.54
2022-08-28T07:08:00.863Z,24.92
2022-08-28T07:10:31.373Z,25.18
2022-08-28T07:12:58.643Z,25.00
2022-08-28T07:15:25.146Z,24.83
2022-08-28T07:17:51.685Z,25.06
2022-08-28T07:20:18.310Z,25.14
2022-08-28T07:22:44.775Z,25.53
2022-08-28T07:25:11.351Z,25.87
2022-08-28T07:27:38.526Z,26.04
2022-08-28T07:30:06.384Z,26.07
2022-08-28T07:32:34.105Z,26.21
2022-08-28T07:35:01.207Z,26.29
2022-08-28T07:37:27.922Z,26.23
2022-08-28T07:39:54.520Z,26.43
2022-08-28T07:42:39.701Z,26.80
2022-08-28T07:45:06.748Z,27.29
2022-08-28T07:47:33.400Z,27.12
2022-08-28T07:50:01.570Z,26.50
2022-08-28T07:52:28.398Z,26.78
2022-08-28T07:54:55.613Z,26.99
2022-08-28T07:57:22.883Z,26.85
2022-08-28T07:59:50.106Z,27.33
2022-08-28T08:02:16.686Z,27.23
2022-08-28T08:04:43.250Z,27.42
2022-08-28T08:07:09.863Z,27.57
2022-08-28T08:09:37.447Z,27.83
2022-08-28T08:12:05.355Z,28.27
2022-08-28T08:14:32.099Z,28.25
2022-08-28T08:17:01.587Z,28.18
2022-08-28T08:19:28.398Z,28.24
2022-08-28T08:21:55.528Z,28.31
2022-08-28T08:24:25.835Z,28.30
2022-08-28T08:26:59.399Z,28.07
2022-08-28T08:29:27.403Z,27.94
2022-08-28T08:32:05.367Z,28.33
2022-08-28T08:34:33.672Z,28.75
2022-08-28T08:37:00.212Z,28.91
2022-08-28T08:39:26.793Z,28.33
2022-08-28T08:41:58.252Z,29.08
2022-08-28T08:44:40.383Z,28.77
2022-08-28T08:47:14.818Z,29.15
2022-08-28T08:49:44.015Z,28.74
2022-08-28T08:52:13.422Z,29.10
2022-08-28T08:54:43.969Z,29.65
2022-08-28T08:57:12.485Z,29.76
2022-08-28T08:59:40.026Z,29.85
2022-08-28T09:02:06.578Z,29.60
2022-08-28T09:04:40.231Z,29.10
2022-08-28T09:07:13.647Z,29.45
2022-08-28T09:09:50.931Z,29.30
2022-08-28T09:12:18.697Z,29.65
2022-08-28T09:14:45.235Z,29.74
2022-08-28T09:17:13.170Z,30.60
2022-08-28T09:19:39.692Z,30.71
2022-08-28T09:22:06.267Z,29.81
2022-08-28T09:24:34.043Z,30.09
2022-08-28T09:27:02.137Z,29.81
2022-08-28T09:29:36.219Z,29.96
2022-08-28T09:32:21.189Z,30.24
2022-08-28T09:34:59.857Z,30.99
2022-08-28T09:37:27.010Z,31.72
2022-08-28T09:40:12.421Z,32.03
2022-08-28T09:42:57.457Z,31.13
2022-08-28T09:45:25.509Z,31.38
2022-08-28T09:47:52.243Z,31.37
2022-08-28T09:50:23.600Z,31.16
2022-08-28T09:52:50.965Z,31.15
2022-08-28T09:55:25.680Z,31.23
2022-08-28T09:57:52.682Z,31.44
2022-08-28T10:00:19.179Z,30.82
2022-08-28T10:02:51.548Z,30.97
2022-08-28T10:05:24.252Z,31.67
2022-08-28T10:07:53.287Z,31.99
2022-08-28T10:10:41.840Z,32.06
2022-08-28T10:13:17.361Z,32.35
2022-08-28T10:15:43.914Z,31.89
2022-08-28T10:18:25.493Z,32.13
2022-08-28T10:20:54.955Z,33.03
2022-08-28T10:23:40.029Z,33.14
2022-08-28T10:26:25.458Z,32.78
2022-08-28T10:29:04.043Z,33.01
2022-08-28T10:31:37.411Z,32.91
2022-08-28T10:34:19.018Z,33.11
2022-08-28T10:36:53.127Z,33.48
2022-08-28T10:39:22.615Z,33.45
2022-08-28T10:41:51.114Z,33.18
2022-08-28T10:44:27.059Z,33.33
2022-08-28T10:46:55.915Z,33.41
2022-08-28T10:49:28.351Z,33.30
2022-08-28T10:52:13.419Z,33.10
2022-08-28T10:54:48.784Z,33.09
2022-08-28T10:57:31.611Z,33.61
2022-08-28T11:00:00.389Z,33.75
2022-08-28T11:02:28.159Z,34.69
2022-08-28T11:04:58.551Z,34.39
2022-08-28T11:07:30.960Z,33.58
2022-08-28T11:10:15.420Z,33.58
2022-08-28T11:12:43.298Z,34.43
2022-08-28T11:15:38.627Z,32.96
2022-08-28T11:18:10.916Z,33.90
2022-08-28T11:20:39.341Z,33.81
2022-08-28T11:23:17.252Z,34.05
2022-08-28T11:25:50.057Z,33.13
2022-08-28T11:28:28.099Z,33.18
2022-08-28T11:31:00.918Z,33.96
2022-08-28T11:33:33.211Z,34.05
2022-08-28T11:35:59.779Z,34.10
2022-08-28T11:38:49.701Z,33.41
2022-08-28T11:41:24.517Z,33.53
2022-08-28T11:44:09.448Z,33.31
2022-08-28T11:46:40.119Z,34.05
2022-08-28T11:49:26.280Z,34.29
2022-08-28T11:51:58.739Z,34.88
2022-08-28T11:55:00.681Z,35.88
2022-08-28T11:57:45.812Z,35.15
2022-08-28T12:00:31.160Z,33.62
2022-08-28T12:03:03.581Z,35.19
2022-08-28T12:05:33.305Z,36.10
2022-08-28T12:08:03.365Z,36.41
2022-08-28T12:10:34.569Z,37.06
2022-08-28T12:13:05.155Z,37.79
2022-08-28T12:15:32.237Z,35.56
2022-08-28T12:18:19.605Z,35.37
2022-08-28T12:20:48.953Z,35.68
2022-08-28T12:23:31.579Z,35.72
2022-08-28T12:26:06.590Z,36.54
2022-08-28T12:28:43.876Z,37.56
2022-08-28T12:31:13.518Z,37.86
2022-08-28T12:33:40.039Z,37.94
2022-08-28T12:36:11.289Z,37.19
2022-08-28T12:38:37.989Z,37.89
2022-08-28T12:41:04.466Z,38.34
2022-08-28T12:43:35.750Z,38.62
2022-08-28T12:46:19.971Z,37.32
2022-08-28T12:48:51.546Z,36.70
2022-08-28T12:51:22.623Z,36.15
2022-08-28T12:53:50.789Z,36.15
2022-08-28T12:56:18.887Z,36.18
2022-08-28T12:58:45.774Z,36.64
2022-08-28T13:01:12.503Z,35.26
2022-08-28T13:03:50.380Z,34.71
2022-08-28T13:06:23.681Z,35.52
2022-08-28T13:08:50.356Z,36.22
2022-08-28T13:11:20.207Z,37.28
2022-08-28T13:13:48.769Z,37.92
2022-08-28T13:16:33.821Z,37.60
2022-08-28T13:19:04.100Z,37.55
2022-08-28T13:21:35.050Z,38.01
2022-08-28T13:24:22.087Z,37.95
2022-08-28T13:27:09.375Z,37.60
2022-08-28T13:29:36.472Z,37.17
2022-08-28T13:32:05.123Z,37.41
2022-08-28T13:34:32.903Z,38.12
2022-08-28T13:37:00.903Z,37.75
2022-08-28T13:39:29.175Z,38.50
2022-08-28T13:41:57.711Z,38.87
2022-08-28T13:44:30.975Z,38.99
2022-08-28T13:46:58.123Z,39.73
2022-08-28T13:49:24.808Z,38.91
2022-08-28T13:51:51.446Z,36.87
2022-08-28T13:54:18.988Z,37.18
2022-08-28T13:56:46.427Z,38.28
2022-08-28T13:59:13.124Z,39.25
2022-08-28T14:01:58.316Z,39.33
2022-08-28T14:04:24.923Z,38.83
2022-08-28T14:06:51.448Z,37.57
2022-08-28T14:09:18.247Z,38.00
2022-08-28T14:11:48.104Z,37.13
2022-08-28T14:14:14.742Z,38.01
2022-08-28T14:16:41.329Z,38.84
2022-08-28T14:19:08.457Z,39.39
2022-08-28T14:21:36.314Z,38.97
2022-08-28T14:24:03.427Z,39.28
2022-08-28T14:26:30.416Z,39.88
2022-08-28T14:29:00.403Z,38.36
2022-08-28T14:31:27.727Z,37.35
2022-08-28T14:33:54.622Z,38.40
2022-08-28T14:36:23.016Z,38.36
2022-08-28T14:38:53.711Z,37.18
2022-08-28T14:41:21.067Z,36.27
2022-08-28T14:43:49.439Z,37.04
2022-08-28T14:46:17.211Z,37.39
2022-08-28T14:48:44.225Z,37.68
2022-08-28T14:51:10.969Z,38.38
2022-08-28T14:53:37.607Z,37.66
2022-08-28T14:56:06.032Z,36.47
2022-08-28T14:58:34.109Z,37.54
2022-08-28T15:01:01.274Z,37.83
2022-08-28T15:03:28.051Z,38.03
2022-08-28T15:06:24.021Z,37.60
2022-08-28T15:08:51.076Z,38.21
2022-08-28T15:11:19.270Z,38.08
2022-08-28T15:13:47.489Z,37.38
2022-08-28T15:16:18.221Z,37.75
2022-08-28T15:18:45.852Z,36.68
2022-08-28T15:21:16.741Z,36.15
2022-08-28T15:23:43.383Z,36.10
2022-08-28T15:26:15.160Z,35.67
2022-08-28T15:28:41.954Z,35.60
2022-08-28T15:31:08.545Z,35.89
2022-08-28T15:33:35.129Z,36.49
2022-08-28T15:36:01.695Z,36.83
2022-08-28T15:38:28.273Z,36.31
2022-08-28T15:41:13.387Z,36.16
2022-08-28T15:43:39.910Z,36.38
2022-08-28T15:46:14.212Z,36.45
2022-08-28T15:48:40.804Z,36.38
2022-08-28T15:51:08.020Z,36.15
2022-08-28T15:53:34.581Z,35.90
2022-08-28T15:56:02.510Z,35.63
2022-08-28T15:58:29.393Z,35.95
2022-08-28T16:00:55.954Z,35.85
2022-08-28T16:03:22.730Z,35.44
2022-08-28T16:05:52.222Z,35.18
2022-08-28T16:08:18.726Z,34.91
2022-08-28T16:10:49.417Z,34.43
2022-08-28T16:13:17.437Z,34.24
2022-08-28T16:15:44.853Z,34.44
2022-08-28T16:18:12.908Z,34.22
2022-08-28T16:20:41.233Z,33.49
2022-08-28T16:23:08.310Z,33.81
2022-08-28T16:25:35.669Z,33.93
2022-08-28T16:28:02.527Z,33.88
2022-08-28T16:30:29.063Z,33.96
2022-08-28T16:32:55.569Z,33.47
2022-08-28T16:35:22.240Z,33.09
2022-08-28T16:37:48.772Z,32.72
2022-08-28T16:40:15.413Z,32.41
2022-08-28T16:42:42.532Z,32.24
2022-08-28T16:45:18.127Z,32.04
2022-08-28T16:47:44.675Z,32.10
2022-08-28T16:50:12.107Z,31.93
2022-08-28T16:52:39.022Z,31.86
2022-08-28T16:55:07.266Z,31.75
2022-08-28T16:57:34.077Z,31.62
2022-08-28T17:00:00.711Z,31.65
2022-08-28T17:02:28.934Z,31.59
2022-08-28T17:04:55.672Z,31.45
2022-08-28T17:07:22.258Z,31.29
2022-08-28T17:09:48.759Z,31.22
2022-08-28T17:12:15.440Z,31.13
2022-08-28T17:14:42.538Z,31.02
2022-08-28T17:17:09.019Z,30.88
2022-08-28T17:19:36.909Z,30.74
2022-08-28T17:22:23.273Z,30.57
2022-08-28T17:24:53.661Z,30.39
2022-08-28T17:27:22.415Z,30.26
2022-08-28T17:29:49.490Z,30.07
2022-08-28T17:32:16.027Z,30.00
2022-08-28T17:34:42.554Z,29.87
2022-08-28T17:37:09.593Z,29.75
2022-08-28T17:39:36.163Z,29.68
2022-08-28T17:42:03.894Z,29.65
2022-08-28T17:44:30.695Z,29.60
2022-08-28T17:46:57.457Z,29.46
2022-08-28T17:49:24.031Z,29.34
2022-08-28T17:51:51.191Z,29.20
2022-08-28T17:54:21.453Z,29.09
2022-08-28T17:56:48.098Z,28.96
2022-08-28T17:59:15.163Z,28.81
2022-08-28T18:01:42.479Z,28.74
2022-08-28T18:04:09.238Z,28.67
2022-08-28T18:06:35.854Z,28.61
2022-08-28T18:09:02.394Z,28.57
2022-08-28T18:11:29.025Z,28.51
2022-08-28T18:13:55.714Z,28.50
2022-08-28T18:16:22.347Z,28.48
2022-08-28T18:18:49.004Z,28.41
2022-08-28T18:21:15.495Z,28.35
2022-08-28T18:23:42.368Z,28.32
2022-08-28T18:26:09.089Z,28.25
2022-08-28T18:28:35.970Z,28.22
2022-08-28T18:31:03.190Z,28.17
2022-08-28T18:33:29.755Z,28.08
2022-08-28T18:35:56.281Z,28.05
2022-08-28T18:38:25.869Z,28.02
2022-08-28T18:40:52.449Z,28.01
2022-08-28T18:43:20.323Z,27.94
2022-08-28T18:45:46.973Z,27.88
2022-08-28T18:48:14.108Z,27.85
2022-08-28T18:50:46.180Z,27.85
2022-08-28T18:53:13.844Z,27.83
2022-08-28T18:55:40.410Z,27.80
2022-08-28T18:58:07.099Z,27.80
2022-08-28T19:00:34.031Z,27.76
2022-08-28T19:03:01.055Z,27.70
2022-08-28T19:05:27.787Z,27.67
2022-08-28T19:07:54.372Z,27.65
2022-08-28T19:10:33.506Z,27.62
2022-08-28T19:13:01.150Z,27.58
2022-08-28T19:15:28.446Z,27.52
2022-08-28T19:17:55.606Z,27.48
2022-08-28T19:20:22.171Z,27.42
2022-08-28T19:22:49.117Z,27.36
2022-08-28T19:25:27.945Z,27.32
2022-08-28T19:27:56.258Z,27.29
2022-08-28T19:30:25.309Z,27.22
2022-08-28T19:32:51.973Z,27.18
2022-08-28T19:35:19.076Z,27.17
2022-08-28T19:37:45.892Z,27.14
2022-08-28T19:40:13.181Z,27.08
2022-08-28T19:42:42.604Z,27.06
2022-08-28T19:45:12.601Z,27.07
2022-08-28T19:47:40.154Z,27.04
2022-08-28T19:50:08.857Z,27.01
2022-08-28T19:52:38.349Z,27.02
2022-08-28T19:55:06.184Z,26.98
2022-08-28T19:57:33.131Z,26.99
2022-08-28T20:00:02.321Z,26.97
2022-08-28T20:02:29.666Z,26.96
2022-08-28T20:04:56.688Z,26.94
2022-08-28T20:07:24.990Z,26.91
2022-08-28T20:09:52.487Z,26.88
2022-08-28T20:12:19.500Z,26.85
2022-08-28T20:14:46.566Z,26.82
2022-08-28T20:17:13.989Z,26.83
2022-08-28T20:19:40.745Z,26.80
2022-08-28T20:22:07.361Z,26.83
2022-08-28T20:24:34.441Z,26.80
2022-08-28T20:27:01.000Z,26.78
2022-08-28T20:29:27.797Z,26.76
2022-08-28T20:31:54.354Z,26.76
2022-08-28T20:34:21.434Z,26.72
2022-08-28T20:36:48.367Z,26.65
2022-08-28T20:39:15.599Z,26.57
2022-08-28T20:41:43.020Z,26.49
2022-08-28T20:44:10.628Z,26.36
2022-08-28T20:46:41.392Z,26.25
2022-08-28T20:49:08.972Z,26.18
2022-08-28T20:51:53.461Z,26.12
2022-08-28T20:54:21.536Z,26.05
2022-08-28T20:56:48.741Z,25.96
2022-08-28T20:59:15.278Z,25.94
2022-08-28T21:01:41.858Z,25.88
2022-08-28T21:04:08.509Z,25.79
2022-08-28T21:06:35.259Z,25.75
2022-08-28T21:09:01.838Z,25.73
2022-08-28T21:11:29.446Z,25.68
2022-08-28T21:13:55.983Z,25.57
2022-08-28T21:16:22.579Z,25.34
2022-08-28T21:19:11.918Z,24.91
2022-08-28T21:21:36.189Z,24.79
2022-08-28T21:24:04.561Z,24.67
2022-08-28T21:26:31.184Z,24.40
2022-08-28T21:28:57.731Z,24.23
2022-08-28T21:31:24.623Z,24.10
2022-08-28T21:33:51.202Z,24.02
2022-08-28T21:36:18.315Z,24.03
2022-08-28T21:38:45.250Z,23.97
2022-08-28T21:41:12.855Z,23.80
2022-08-28T21:43:40.284Z,23.71
2022-08-28T21:46:07.290Z,23.59
2022-08-28T21:48:36.157Z,23.49
2022-08-28T21:51:05.386Z,23.39
2022-08-28T21:53:32.620Z,23.33
2022-08-28T21:55:59.111Z,23.25
2022-08-28T21:58:25.669Z,23.10
2022-08-28T22:00:53.842Z,23.03
2022-08-28T22:03:21.432Z,22.92
2022-08-28T22:05:48.890Z,22.87
2022-08-28T22:08:15.830Z,22.88
2022-08-28T22:10:43.423Z,22.77
2022-08-28T22:13:10.960Z,22.76
2022-08-28T22:15:39.653Z,22.70
2022-08-28T22:18:07.001Z,22.57
2022-08-28T22:20:34.325Z,22.52
2022-08-28T22:23:10.444Z,22.48
2022-08-28T22:25:41.569Z,22.46
2022-08-28T22:28:09.098Z,22.40
2022-08-28T22:30:35.600Z,22.20
2022-08-28T22:33:02.292Z,22.08
2022-08-28T22:35:29.367Z,22.01
2022-08-28T22:37:55.956Z,21.97
2022-08-28T22:40:22.577Z,22.04
2022-08-28T22:42:50.496Z,22.02
2022-08-28T22:45:17.742Z,21.95
2022-08-28T22:47:44.243Z,21.93
2022-08-28T22:50:10.988Z,21.62
2022-08-28T22:52:37.850Z,21.36
2022-08-28T22:55:08.013Z,21.16
2022-08-28T22:57:35.480Z,21.09
2022-08-28T23:00:04.042Z,20.96
2022-08-28T23:02:30.600Z,20.88
2022-08-28T23:04:57.365Z,20.88
2022-08-28T23:07:23.974Z,20.81
2022-08-28T23:09:50.464Z,20.76
2022-08-28T23:12:17.343Z,20.79
2022-08-28T23:14:48.244Z,20.77
2022-08-28T23:17:15.172Z,20.79
2022-08-28T23:19:43.469Z,20.78
2022-08-28T23:22:12.952Z,20.75
2022-08-28T23:24:39.517Z,20.73
2022-08-28T23:27:34.290Z,20.75
2022-08-28T23:29:54.659Z,20.78
2022-08-28T23:32:21.164Z,20.77
2022-08-28T23:34:47.943Z,20.70
2022-08-28T23:37:14.889Z,20.69
2022-08-28T23:39:41.416Z,20.72
2022-08-28T23:42:08.060Z,20.70
2022-08-28T23:44:35.036Z,20.61
2022-08-28T23:47:01.874Z,20.54
2022-08-28T23:49:29.280Z,20.53
2022-08-28T23:51:55.783Z,20.53
2022-08-28T23:54:22.327Z,20.50
2022-08-28T23:56:48.973Z,20.52
2022-08-28T23:59:21.176Z,20.56
